Time;durP1;ratioP1;P1;durP2;ratioP2;P2;SDS_P1;SDS_P2;PMS_P1;PMS_P2;Temp;Humidity;BMP_temperature;BMP_pressure;BME280_temperature;BME280_humidity;BME280_pressure;Samples;Min_cycle;Max_cycle;Signal;HPM_P1;HPM_P2
2022/01/25 00:15:10;;;;;;;;;;;14.40;56.50;;;;;;5050801;28;20401;-71
2022/01/25 00:26:02;;;;;;;;;;;14.40;56.40;;;;;;5050641;28;19924;-71
2022/01/25 00:28:42;;;;;;;;;;;14.40;56.50;;;;;;5052008;28;20417;-71
2022/01/25 00:31:13;;;;;;;;;;;14.40;56.50;;;;;;5051512;28;19935;-71
2022/01/25 00:33:40;;;;;;;;;;;14.40;56.50;;;;;;5051656;28;19925;-71
2022/01/25 00:36:08;;;;;;;;;;;14.30;56.50;;;;;;5054332;28;20007;-70
2022/01/25 00:38:35;;;;;;;;;;;14.30;56.50;;;;;;5054445;28;20012;-71
2022/01/25 00:41:03;;;;;;;;;;;14.30;56.50;;;;;;5054575;28;20035;-71
2022/01/25 00:43:30;;;;;;;;;;;14.30;56.50;;;;;;5054126;28;20019;-71
2022/01/25 00:46:00;;;;;;;;;;;14.30;56.50;;;;;;5055456;28;20340;-71
2022/01/25 00:48:32;;;;;;;;;;;14.30;56.60;;;;;;5055441;28;19929;-71
2022/01/25 00:51:14;;;;;;;;;;;14.30;56.60;;;;;;5055231;28;20023;-71
2022/01/25 00:53:56;;;;;;;;;;;14.20;56.50;;;;;;5051695;28;19932;-71
2022/01/25 00:56:24;;;;;;;;;;;14.20;56.50;;;;;;5033957;28;20290;-71
2022/01/25 00:58:50;;;;;;;;;;;14.20;56.50;;;;;;5034283;28;20000;-71
2022/01/25 01:01:17;;;;;;;;;;;14.20;56.50;;;;;;5034152;28;19964;-71
2022/01/25 01:03:44;;;;;;;;;;;14.20;56.60;;;;;;5034919;28;19925;-71
2022/01/25 01:06:10;;;;;;;;;;;14.20;56.60;;;;;;5033843;28;20004;-71
2022/01/25 01:08:37;;;;;;;;;;;14.20;56.70;;;;;;5034030;28;19968;-71
2022/01/25 01:11:07;;;;;;;;;;;14.20;56.70;;;;;;5034878;28;19932;-71
2022/01/25 01:13:52;;;;;;;;;;;14.20;56.60;;;;;;5042080;28;19925;-71
2022/01/25 01:16:51;;;;;;;;;;;14.20;56.70;;;;;;5053658;28;20394;-70
2022/01/25 01:30:27;;;;;;;;;;;14.10;56.70;;;;;;5053709;28;19920;-71
2022/01/25 01:33:22;;;;;;;;;;;14.10;56.70;;;;;;5053453;28;19931;-70
2022/01/25 01:41:56;;;;;;;;;;;14.10;56.70;;;;;;5110157;27;19912;-69
2022/01/25 01:44:23;;;;;;;;;;;14.10;56.70;;;;;;5108770;28;19924;-69
2022/01/25 01:47:04;;;;;;;;;;;14.10;56.60;;;;;;5109780;28;19924;-69
2022/01/25 01:49:37;;;;;;;;;;;14.10;56.70;;;;;;5109121;28;19924;-69
2022/01/25 01:52:04;;;;;;;;;;;14.10;56.70;;;;;;5109038;28;20592;-69
2022/01/25 01:54:31;;;;;;;;;;;14.10;56.70;;;;;;5108878;28;20396;-69
2022/01/25 01:56:59;;;;;;;;;;;14.00;56.70;;;;;;5108469;28;20027;-69
2022/01/25 01:59:25;;;;;;;;;;;14.00;56.60;;;;;;5109825;28;20006;-69
2022/01/25 02:01:52;;;;;;;;;;;14.00;56.70;;;;;;5109893;28;19967;-69
2022/01/25 02:04:19;;;;;;;;;;;14.00;56.80;;;;;;5109878;28;19924;-69
2022/01/25 02:06:45;;;;;;;;;;;14.00;56.80;;;;;;5108512;28;20007;-68
2022/01/25 02:09:12;;;;;;;;;;;14.00;56.80;;;;;;5107348;28;20363;-69
2022/01/25 02:11:39;;;;;;;;;;;14.00;56.80;;;;;;5087938;28;19924;-69
2022/01/25 02:14:09;;;;;;;;;;;14.00;56.80;;;;;;5089246;28;20019;-69
2022/01/25 02:16:43;;;;;;;;;;;14.00;56.80;;;;;;5089009;28;19931;-70
2022/01/25 02:24:39;;;;;;;;;;;14.00;56.70;;;;;;5108411;28;19928;-69
2022/01/25 02:27:06;;;;;;;;;;;14.00;56.70;;;;;;5109420;28;20011;-69
2022/01/25 02:29:33;;;;;;;;;;;14.10;56.70;;;;;;5109253;28;19924;-69
2022/01/25 02:31:59;;;;;;;;;;;14.00;56.60;;;;;;5107835;28;19931;-69
2022/01/25 02:34:26;;;;;;;;;;;14.10;56.70;;;;;;5108011;28;19924;-69
2022/01/25 02:36:57;;;;;;;;;;;14.00;56.60;;;;;;5109255;28;19924;-69
2022/01/25 02:39:23;;;;;;;;;;;14.10;56.60;;;;;;5110782;28;19931;-69
2022/01/25 02:41:51;;;;;;;;;;;14.10;56.50;;;;;;5129471;28;19930;-69
2022/01/25 02:44:23;;;;;;;;;;;14.10;56.50;;;;;;5128307;28;20010;-69
2022/01/25 02:49:35;;;;;;;;;;;14.10;56.50;;;;;;5128248;28;19919;-69
2022/01/25 02:52:03;;;;;;;;;;;14.10;56.50;;;;;;5120656;28;19923;-69
2022/01/25 02:54:29;;;;;;;;;;;14.10;56.50;;;;;;5115450;28;20355;-69
2022/01/25 02:56:56;;;;;;;;;;;14.20;56.50;;;;;;5114059;28;20011;-69
2022/01/25 02:59:23;;;;;;;;;;;14.20;56.50;;;;;;5114580;28;19924;-69
2022/01/25 03:01:49;;;;;;;;;;;14.20;56.40;;;;;;5115420;28;19930;-69
2022/01/25 03:04:16;;;;;;;;;;;14.20;56.40;;;;;;5115172;28;19931;-69
2022/01/25 03:06:43;;;;;;;;;;;14.20;56.40;;;;;;5114076;28;19927;-69
2022/01/25 03:09:11;;;;;;;;;;;14.20;56.40;;;;;;5115304;28;19923;-69
2022/01/25 03:11:38;;;;;;;;;;;14.20;56.40;;;;;;5114318;28;20330;-69
2022/01/25 03:14:09;;;;;;;;;;;14.20;56.30;;;;;;5114015;28;20026;-69
2022/01/25 03:16:40;;;;;;;;;;;14.30;56.40;;;;;;5113798;28;19928;-69
2022/01/25 03:19:29;;;;;;;;;;;14.30;56.40;;;;;;5114181;28;19924;-69
2022/01/25 03:21:54;;;;;;;;;;;14.30;56.40;;;;;;5113079;28;19923;-69
2022/01/25 03:24:22;;;;;;;;;;;14.30;56.30;;;;;;5115304;28;20376;-69
2022/01/25 03:26:48;;;;;;;;;;;14.30;56.30;;;;;;5113696;28;19924;-69
2022/01/25 03:29:15;;;;;;;;;;;14.30;56.30;;;;;;5114756;28;19928;-69
2022/01/25 03:31:41;;;;;;;;;;;14.30;56.30;;;;;;5114937;28;20440;-69
2022/01/25 03:34:08;;;;;;;;;;;14.30;56.20;;;;;;5113661;28;20014;-69
2022/01/25 03:36:34;;;;;;;;;;;14.30;56.20;;;;;;5114404;28;19934;-69
2022/01/25 03:39:01;;;;;;;;;;;14.30;56.20;;;;;;5113749;28;20010;-70
2022/01/25 03:41:30;;;;;;;;;;;14.40;56.30;;;;;;5113299;28;19923;-69
2022/01/25 03:43:57;;;;;;;;;;;14.40;56.20;;;;;;5113593;28;19938;-69
2022/01/25 03:46:31;;;;;;;;;;;14.40;56.20;;;;;;5114444;28;19923;-70
2022/01/25 03:51:41;;;;;;;;;;;14.40;56.10;;;;;;5113577;28;19923;-70
2022/01/25 03:54:08;;;;;;;;;;;14.40;56.20;;;;;;5106942;28;19931;-69
2022/01/25 03:56:36;;;;;;;;;;;14.40;56.10;;;;;;5092824;28;20384;-69
2022/01/25 03:59:02;;;;;;;;;;;14.40;56.10;;;;;;5093931;28;19930;-69
2022/01/25 04:01:30;;;;;;;;;;;14.40;56.10;;;;;;5092772;28;20015;-69
2022/01/25 04:04:00;;;;;;;;;;;14.40;56.10;;;;;;5092687;28;19924;-70
2022/01/25 04:06:29;;;;;;;;;;;14.40;56.10;;;;;;5104183;28;20372;-69
2022/01/25 04:08:56;;;;;;;;;;;14.40;56.10;;;;;;5114499;28;19928;-69
2022/01/25 04:11:23;;;;;;;;;;;14.40;56.10;;;;;;5114235;28;20357;-69
2022/01/25 04:13:53;;;;;;;;;;;14.40;56.10;;;;;;5112692;28;19931;-69
2022/01/25 04:16:23;;;;;;;;;;;14.40;56.10;;;;;;5112558;28;20006;-69
2022/01/25 04:19:01;;;;;;;;;;;14.40;56.10;;;;;;5112995;28;20487;-69
2022/01/25 04:27:10;;;;;;;;;;;14.40;56.00;;;;;;5092967;28;20300;-69
2022/01/25 04:29:38;;;;;;;;;;;14.40;56.00;;;;;;5093467;28;19931;-69
2022/01/25 04:32:07;;;;;;;;;;;14.40;56.10;;;;;;5093264;28;19932;-69
2022/01/25 04:34:44;;;;;;;;;;;14.40;56.00;;;;;;5093185;28;20273;-69
2022/01/25 04:53:42;;;;;;;;;;;14.50;56.10;;;;;;5100071;28;19928;-69
2022/01/25 04:56:15;;;;;;;;;;;14.40;56.00;;;;;;5099698;28;20381;-69
2022/01/25 04:58:49;;;;;;;;;;;14.50;56.00;;;;;;5100645;28;19924;-69
2022/01/25 05:01:17;;;;;;;;;;;14.40;56.00;;;;;;5100438;28;19928;-69
2022/01/25 05:03:55;;;;;;;;;;;14.40;56.00;;;;;;5111644;28;19924;-69
2022/01/25 05:06:22;;;;;;;;;;;14.50;56.00;;;;;;5113443;28;19931;-69
2022/01/25 05:08:52;;;;;;;;;;;14.50;56.00;;;;;;5113518;28;19924;-69
2022/01/25 05:11:26;;;;;;;;;;;14.50;56.00;;;;;;5112273;28;19924;-69
2022/01/25 05:14:08;;;;;;;;;;;14.50;56.10;;;;;;5100687;28;19924;-69
2022/01/25 05:16:46;;;;;;;;;;;14.50;56.00;;;;;;5092834;28;19928;-69
2022/01/25 05:19:23;;;;;;;;;;;14.50;56.00;;;;;;5093067;28;19924;-69
2022/01/25 05:24:34;;;;;;;;;;;14.50;56.00;;;;;;5111546;28;19924;-70
2022/01/25 05:27:01;;;;;;;;;;;14.70;56.20;;;;;;5112521;28;20014;-69
2022/01/25 05:29:27;;;;;;;;;;;14.50;56.00;;;;;;5112074;28;19923;-69
2022/01/25 05:31:55;;;;;;;;;;;14.50;56.00;;;;;;5111891;28;19946;-69
2022/01/25 05:34:22;;;;;;;;;;;14.50;56.00;;;;;;5108710;28;20016;-69
2022/01/25 05:36:49;;;;;;;;;;;14.50;55.90;;;;;;5111639;28;20455;-69
2022/01/25 05:39:19;;;;;;;;;;;14.50;56.00;;;;;;5113019;28;19967;-69
2022/01/25 05:41:54;;;;;;;;;;;14.50;56.00;;;;;;5111119;28;19928;-69
2022/01/25 05:44:36;;;;;;;;;;;14.50;56.00;;;;;;5111276;28;19927;-69
2022/01/25 05:47:06;;;;;;;;;;;14.50;56.00;;;;;;5109427;28;19928;-70
2022/01/25 05:49:33;;;;;;;;;;;14.50;56.00;;;;;;5111986;28;19928;-71
2022/01/25 05:52:00;;;;;;;;;;;14.50;55.90;;;;;;5111041;28;20018;-70
2022/01/25 05:54:26;;;;;;;;;;;14.50;56.00;;;;;;5111479;28;19930;-71
2022/01/25 05:56:53;;;;;;;;;;;14.50;56.00;;;;;;5111300;28;20020;-70
2022/01/25 05:59:19;;;;;;;;;;;14.50;56.00;;;;;;5112270;28;19930;-70
2022/01/25 06:01:46;;;;;;;;;;;14.50;55.90;;;;;;5111001;28;19930;-70
2022/01/25 06:04:14;;;;;;;;;;;14.40;55.90;;;;;;5111310;28;20412;-70
2022/01/25 06:06:41;;;;;;;;;;;14.50;55.90;;;;;;5104292;28;20011;-70
2022/01/25 06:09:07;;;;;;;;;;;14.50;56.00;;;;;;5101394;28;20011;-70
2022/01/25 06:11:34;;;;;;;;;;;14.50;56.00;;;;;;5099581;28;20003;-70
2022/01/25 06:14:01;;;;;;;;;;;14.40;55.90;;;;;;5098551;28;19928;-71
2022/01/25 06:16:29;;;;;;;;;;;14.40;55.90;;;;;;5101650;28;19959;-70
2022/01/25 06:18:55;;;;;;;;;;;14.50;56.00;;;;;;5101467;28;20371;-70
2022/01/25 06:21:23;;;;;;;;;;;14.50;55.90;;;;;;5100059;28;19924;-70
2022/01/25 06:23:50;;;;;;;;;;;14.50;55.90;;;;;;5101609;28;20361;-70
2022/01/25 06:26:16;;;;;;;;;;;14.40;55.90;;;;;;5100381;28;20010;-70
2022/01/25 06:28:43;;;;;;;;;;;14.50;56.60;;;;;;5104979;28;20015;-70
2022/01/25 06:31:10;;;;;;;;;;;14.50;56.00;;;;;;5103217;28;19955;-70
2022/01/25 06:33:38;;;;;;;;;;;14.50;56.00;;;;;;5104466;28;19924;-70
2022/01/25 06:36:04;;;;;;;;;;;14.50;55.90;;;;;;5104459;28;19934;-70
2022/01/25 06:38:32;;;;;;;;;;;14.50;55.90;;;;;;5120257;27;19968;-70
2022/01/25 06:40:59;;;;;;;;;;;14.50;56.00;;;;;;5103677;28;20015;-70
2022/01/25 06:43:26;;;;;;;;;;;14.50;55.90;;;;;;5104990;28;20024;-70
2022/01/25 06:45:57;;;;;;;;;;;14.50;55.90;;;;;;5103211;28;19924;-70
2022/01/25 06:48:23;;;;;;;;;;;14.50;55.90;;;;;;5102887;28;19930;-70
2022/01/25 06:50:50;;;;;;;;;;;14.50;55.90;;;;;;5105047;28;19924;-71
2022/01/25 06:53:17;;;;;;;;;;;14.50;55.90;;;;;;5103840;28;19928;-71
2022/01/25 06:55:45;;;;;;;;;;;14.50;55.90;;;;;;5106397;28;20432;-70
2022/01/25 06:58:11;;;;;;;;;;;14.50;55.90;;;;;;5110042;28;19931;-70
2022/01/25 07:00:38;;;;;;;;;;;14.50;55.90;;;;;;5102064;28;19930;-70
2022/01/25 07:03:05;;;;;;;;;;;14.50;55.90;;;;;;5094940;28;19931;-70
2022/01/25 07:05:31;;;;;;;;;;;14.60;55.90;;;;;;5094437;28;20304;-70
2022/01/25 07:07:58;;;;;;;;;;;14.50;55.80;;;;;;5101888;28;19924;-70
2022/01/25 07:10:24;;;;;;;;;;;14.50;55.80;;;;;;5100004;28;20460;-70
2022/01/25 07:12:52;;;;;;;;;;;14.50;55.80;;;;;;5105150;28;19927;-70
2022/01/25 07:15:19;;;;;;;;;;;14.50;55.70;;;;;;5103682;28;20019;-71
2022/01/25 07:17:46;;;;;;;;;;;14.60;55.80;;;;;;5103081;28;20465;-70
2022/01/25 07:20:12;;;;;;;;;;;14.50;55.70;;;;;;5097563;28;20010;-70
2022/01/25 07:22:40;;;;;;;;;;;14.60;55.80;;;;;;5103630;28;20006;-70
2022/01/25 07:25:09;;;;;;;;;;;14.60;55.80;;;;;;5113202;28;19934;-70
2022/01/25 07:27:35;;;;;;;;;;;14.60;55.80;;;;;;5110034;28;20006;-71
2022/01/25 07:30:04;;;;;;;;;;;14.60;55.80;;;;;;5101648;28;20008;-71
2022/01/25 07:32:30;;;;;;;;;;;14.60;55.70;;;;;;5110404;28;20459;-70
2022/01/25 07:34:57;;;;;;;;;;;14.50;55.70;;;;;;5106856;28;19928;-70
2022/01/25 07:37:23;;;;;;;;;;;14.60;55.80;;;;;;5101293;28;20007;-70
2022/01/25 07:39:50;;;;;;;;;;;14.60;55.80;;;;;;5093394;28;19930;-70
2022/01/25 07:42:18;;;;;;;;;;;14.50;55.70;;;;;;5093332;28;20436;-72
2022/01/25 07:44:44;;;;;;;;;;;14.50;55.70;;;;;;5094309;28;19924;-71
2022/01/25 07:47:12;;;;;;;;;;;14.60;55.60;;;;;;5092870;28;19978;-71
2022/01/25 07:49:39;;;;;;;;;;;14.60;55.70;;;;;;5097974;28;19974;-71
2022/01/25 07:52:07;;;;;;;;;;;14.60;55.60;;;;;;5103259;28;20011;-71
2022/01/25 07:54:34;;;;;;;;;;;14.60;55.70;;;;;;5102064;28;20427;-71
2022/01/25 07:57:00;;;;;;;;;;;14.60;55.70;;;;;;5101899;28;19923;-71
2022/01/25 07:59:27;;;;;;;;;;;14.60;55.70;;;;;;5095672;28;20014;-71
2022/01/25 08:01:53;;;;;;;;;;;14.70;55.80;;;;;;5092726;28;19923;-71
2022/01/25 08:04:21;;;;;;;;;;;14.70;55.80;;;;;;5092996;28;20388;-71
2022/01/25 08:06:48;;;;;;;;;;;14.60;55.70;;;;;;5092286;28;20018;-71
2022/01/25 08:09:14;;;;;;;;;;;14.60;55.70;;;;;;5092803;28;19971;-71
2022/01/25 08:11:42;;;;;;;;;;;14.60;55.70;;;;;;5092751;28;19967;-71
2022/01/25 08:14:17;;;;;;;;;;;15.40;56.10;;;;;;5099981;28;19931;-71
2022/01/25 08:16:45;;;;;;;;;;;14.70;55.70;;;;;;5101748;28;19931;-71
2022/01/25 08:19:11;;;;;;;;;;;14.70;55.70;;;;;;5103987;28;20010;-71
2022/01/25 08:21:40;;;;;;;;;;;14.70;55.70;;;;;;5113265;28;20543;-71
2022/01/25 08:24:07;;;;;;;;;;;14.70;55.70;;;;;;5112748;28;20022;-71
2022/01/25 08:26:33;;;;;;;;;;;14.70;55.70;;;;;;5112644;28;20018;-71
2022/01/25 08:29:00;;;;;;;;;;;14.70;55.70;;;;;;5112997;28;19930;-71
2022/01/25 08:31:27;;;;;;;;;;;14.70;55.70;;;;;;5112729;28;19975;-71
2022/01/25 08:33:53;;;;;;;;;;;14.70;55.70;;;;;;5112426;28;20010;-71
2022/01/25 08:36:20;;;;;;;;;;;14.70;55.60;;;;;;5105310;28;19931;-71
2022/01/25 08:38:48;;;;;;;;;;;14.70;55.60;;;;;;5103015;28;20458;-71
2022/01/25 08:41:15;;;;;;;;;;;14.70;55.60;;;;;;5098028;28;20019;-71
2022/01/25 08:43:41;;;;;;;;;;;14.70;55.60;;;;;;5091879;28;19925;-71
2022/01/25 08:46:08;;;;;;;;;;;14.70;55.60;;;;;;5092082;28;20011;-71
2022/01/25 08:48:35;;;;;;;;;;;14.80;55.60;;;;;;5109857;28;20026;-70
2022/01/25 08:51:01;;;;;;;;;;;14.80;55.60;;;;;;5112257;28;20007;-72
2022/01/25 08:53:28;;;;;;;;;;;14.80;55.60;;;;;;5112227;28;20018;-73
2022/01/25 08:55:56;;;;;;;;;;;14.80;55.70;;;;;;5112208;28;20014;-71
2022/01/25 08:58:22;;;;;;;;;;;14.80;55.60;;;;;;5109078;28;20019;-73
2022/01/25 09:00:49;;;;;;;;;;;14.80;55.70;;;;;;5097475;28;19999;-74
2022/01/25 09:03:15;;;;;;;;;;;14.80;55.70;;;;;;5090145;28;19967;-73
2022/01/25 09:05:42;;;;;;;;;;;14.80;55.60;;;;;;5090094;28;20591;-71
2022/01/25 09:08:09;;;;;;;;;;;14.80;55.60;;;;;;5091694;28;20019;-72
2022/01/25 09:10:36;;;;;;;;;;;14.80;55.60;;;;;;5091781;28;19924;-71
2022/01/25 09:13:04;;;;;;;;;;;14.80;55.60;;;;;;5091818;28;20016;-71
2022/01/25 09:15:31;;;;;;;;;;;14.80;55.60;;;;;;5091264;28;19966;-71
2022/01/25 09:17:57;;;;;;;;;;;14.80;56.10;;;;;;5099563;28;19927;-71
2022/01/25 09:20:24;;;;;;;;;;;14.80;55.60;;;;;;5093693;28;20015;-72
2022/01/25 09:22:51;;;;;;;;;;;14.90;55.60;;;;;;5111832;28;20018;-72
2022/01/25 09:25:18;;;;;;;;;;;14.90;55.60;;;;;;5102391;28;20308;-72
2022/01/25 09:27:45;;;;;;;;;;;14.90;55.60;;;;;;5091559;28;19977;-72
2022/01/25 09:30:13;;;;;;;;;;;14.90;55.60;;;;;;5091378;28;20353;-72
2022/01/25 09:32:40;;;;;;;;;;;14.90;55.50;;;;;;5091635;28;20037;-72
2022/01/25 09:35:06;;;;;;;;;;;14.90;55.60;;;;;;5091208;28;19928;-72
2022/01/25 09:37:33;;;;;;;;;;;14.90;55.50;;;;;;5091180;28;20373;-72
2022/01/25 09:40:00;;;;;;;;;;;14.90;55.50;;;;;;5092183;28;19946;-72
2022/01/25 09:42:28;;;;;;;;;;;14.90;55.50;;;;;;5091147;28;19975;-72
2022/01/25 09:44:55;;;;;;;;;;;14.90;55.50;;;;;;5110169;28;19931;-72
2022/01/25 09:47:23;;;;;;;;;;;14.90;55.50;;;;;;5097833;28;20034;-72
2022/01/25 09:49:50;;;;;;;;;;;14.90;55.50;;;;;;5091268;28;20026;-71
2022/01/25 09:52:16;;;;;;;;;;;14.90;55.50;;;;;;5091290;28;20014;-71
2022/01/25 09:54:43;;;;;;;;;;;14.90;55.50;;;;;;5102597;28;20003;-71
2022/01/25 09:57:09;;;;;;;;;;;14.90;55.50;;;;;;5111351;28;19999;-71
2022/01/25 09:59:36;;;;;;;;;;;14.90;55.40;;;;;;5111086;28;20007;-71
2022/01/25 10:02:03;;;;;;;;;;;14.90;55.40;;;;;;5101526;28;20035;-72
2022/01/25 10:04:34;;;;;;;;;;;15.00;55.50;;;;;;5103770;28;20003;-71
2022/01/25 10:07:01;;;;;;;;;;;14.90;55.40;;;;;;5105821;28;19924;-72
2022/01/25 10:09:28;;;;;;;;;;;15.00;55.50;;;;;;5112427;28;19924;-71
2022/01/25 10:11:55;;;;;;;;;;;14.90;55.30;;;;;;5115175;28;19942;-71
2022/01/25 10:14:23;;;;;;;;;;;15.00;55.40;;;;;;5115421;28;19928;-72
2022/01/25 10:16:52;;;;;;;;;;;15.50;55.80;;;;;;5115423;28;19963;-74
2022/01/25 10:19:22;;;;;;;;;;;15.00;55.40;;;;;;5115337;28;20416;-72
2022/01/25 10:21:51;;;;;;;;;;;15.00;55.40;;;;;;5114602;28;20014;-72
2022/01/25 10:24:18;;;;;;;;;;;15.00;55.40;;;;;;5114996;28;19924;-72
2022/01/25 10:26:47;;;;;;;;;;;15.00;55.40;;;;;;5115208;28;19971;-72
2022/01/25 10:29:14;;;;;;;;;;;15.00;56.00;;;;;;5115205;28;20002;-72
2022/01/25 10:31:41;;;;;;;;;;;15.10;56.60;;;;;;5115374;28;20432;-72
2022/01/25 10:34:08;;;;;;;;;;;15.20;57.00;;;;;;5114962;28;20007;-72
2022/01/25 10:36:35;;;;;;;;;;;15.30;56.90;;;;;;5114878;28;19924;-72
2022/01/25 10:39:03;;;;;;;;;;;15.50;56.70;;;;;;5103336;28;19935;-72
2022/01/25 10:41:31;;;;;;;;;;;15.70;56.30;;;;;;5102641;28;20381;-72
2022/01/25 10:43:58;;;;;;;;;;;15.80;56.00;;;;;;5094122;28;19924;-71
2022/01/25 10:46:26;;;;;;;;;;;15.80;55.90;;;;;;5094296;28;20011;-72
2022/01/25 10:48:54;;;;;;;;;;;15.90;55.80;;;;;;5094320;28;19925;-72
2022/01/25 10:51:22;;;;;;;;;;;15.90;55.60;;;;;;5094135;28;19934;-71
2022/01/25 10:53:58;;;;;;;;;;;15.90;55.70;;;;;;5098002;28;20007;-71
2022/01/25 10:56:26;;;;;;;;;;;15.90;55.50;;;;;;5114473;28;19923;-71
2022/01/25 10:58:53;;;;;;;;;;;15.90;55.30;;;;;;5114848;28;19975;-72
2022/01/25 11:01:29;;;;;;;;;;;15.90;55.10;;;;;;5115472;28;20010;-70
2022/01/25 11:04:00;;;;;;;;;;;15.80;55.10;;;;;;5114311;28;20002;-71
2022/01/25 11:06:28;;;;;;;;;;;15.80;55.20;;;;;;5113941;28;20022;-71
2022/01/25 11:08:59;;;;;;;;;;;15.70;55.20;;;;;;5113934;28;19974;-70
2022/01/25 11:11:28;;;;;;;;;;;15.70;55.50;;;;;;5114611;28;20373;-70
2022/01/25 11:14:49;;;;;;;;;;;15.70;55.60;;;;;;5111628;28;19977;-71
2022/01/25 11:16:44;;;;;;;;;;;15.70;55.50;;;;;;5105555;28;20292;-71
2022/01/25 11:19:10;;;;;;;;;;;15.70;55.60;;;;;;5103010;28;19924;-70
2022/01/25 11:21:37;;;;;;;;;;;15.70;55.70;;;;;;5110805;28;20026;-70
2022/01/25 11:24:04;;;;;;;;;;;15.70;55.70;;;;;;5115206;28;19930;-71
2022/01/25 11:26:32;;;;;;;;;;;15.70;55.70;;;;;;5114017;28;20010;-71
2022/01/25 11:28:58;;;;;;;;;;;15.70;55.70;;;;;;5115186;28;19967;-71
2022/01/25 11:31:25;;;;;;;;;;;15.70;55.70;;;;;;5110534;28;19934;-72
2022/01/25 11:33:51;;;;;;;;;;;15.80;55.90;;;;;;5113612;28;19966;-71
2022/01/25 11:36:19;;;;;;;;;;;15.80;55.80;;;;;;5113356;28;19971;-71
2022/01/25 11:38:47;;;;;;;;;;;15.80;55.90;;;;;;5107749;28;20039;-71
2022/01/25 11:41:14;;;;;;;;;;;15.80;56.40;;;;;;5113207;28;19924;-71
2022/01/25 11:43:43;;;;;;;;;;;15.80;55.80;;;;;;5113234;28;19927;-71
2022/01/25 11:46:10;;;;;;;;;;;15.80;55.90;;;;;;5113121;28;19924;-69
2022/01/25 11:48:41;;;;;;;;;;;15.90;55.90;;;;;;5113630;28;20018;-71
2022/01/25 11:51:15;;;;;;;;;;;15.90;56.50;;;;;;5104273;28;20010;-71
2022/01/25 11:53:42;;;;;;;;;;;15.90;55.70;;;;;;5095779;28;19967;-71
2022/01/25 11:56:09;;;;;;;;;;;16.00;55.60;;;;;;5113286;28;20319;-71
2022/01/25 11:58:36;;;;;;;;;;;16.00;55.40;;;;;;5113699;28;20420;-71
2022/01/25 12:01:04;;;;;;;;;;;16.00;55.40;;;;;;5113507;28;20023;-71
2022/01/25 12:03:31;;;;;;;;;;;16.00;55.30;;;;;;5106936;28;20467;-71
2022/01/25 12:06:00;;;;;;;;;;;15.90;55.20;;;;;;5098805;28;20010;-71
2022/01/25 12:08:39;;;;;;;;;;;16.00;55.20;;;;;;5113195;28;19924;-71
2022/01/25 12:11:24;;;;;;;;;;;16.00;55.20;;;;;;5113012;28;19923;-71
2022/01/25 12:13:59;;;;;;;;;;;16.00;55.20;;;;;;5112811;28;20002;-71
2022/01/25 12:16:27;;;;;;;;;;;15.90;55.10;;;;;;5111640;28;20014;-71
2022/01/25 12:18:58;;;;;;;;;;;15.90;55.10;;;;;;5112595;28;19974;-71
2022/01/25 12:21:43;;;;;;;;;;;15.90;55.10;;;;;;5112489;28;19945;-71
2022/01/25 12:24:17;;;;;;;;;;;15.90;55.10;;;;;;5092496;28;19946;-71
2022/01/25 12:27:00;;;;;;;;;;;15.90;55.10;;;;;;5092238;28;20454;-71
2022/01/25 12:29:31;;;;;;;;;;;15.90;55.10;;;;;;5092031;28;19928;-71
2022/01/25 12:32:12;;;;;;;;;;;15.90;55.10;;;;;;5102206;28;20452;-71
2022/01/25 12:34:54;;;;;;;;;;;15.90;55.10;;;;;;5112355;28;19971;-71
2022/01/25 12:37:35;;;;;;;;;;;15.90;55.10;;;;;;5112223;28;20014;-71
2022/01/25 12:40:17;;;;;;;;;;;15.80;55.00;;;;;;5111257;28;20010;-71
2022/01/25 12:42:45;;;;;;;;;;;15.90;55.10;;;;;;5111509;28;20012;-71
2022/01/25 12:45:12;;;;;;;;;;;15.90;55.10;;;;;;5112399;28;20011;-72
2022/01/25 12:47:39;;;;;;;;;;;15.90;55.00;;;;;;5111656;28;20031;-72
2022/01/25 12:50:06;;;;;;;;;;;15.90;55.10;;;;;;5112491;28;20492;-72
2022/01/25 12:52:32;;;;;;;;;;;15.80;55.00;;;;;;5112429;28;20254;-72
2022/01/25 12:54:59;;;;;;;;;;;15.90;55.10;;;;;;5108904;28;19928;-72
2022/01/25 12:57:26;;;;;;;;;;;15.80;55.00;;;;;;5111902;28;20385;-72
2022/01/25 12:59:54;;;;;;;;;;;15.80;55.00;;;;;;5112000;28;20002;-72
2022/01/25 13:02:20;;;;;;;;;;;15.90;55.00;;;;;;5112181;28;20014;-72
2022/01/25 13:04:47;;;;;;;;;;;15.80;55.00;;;;;;5111558;28;20006;-72
2022/01/25 13:07:13;;;;;;;;;;;15.80;55.00;;;;;;5094078;28;20010;-72
2022/01/25 13:09:44;;;;;;;;;;;15.80;54.90;;;;;;5091535;28;20416;-72
2022/01/25 13:12:15;;;;;;;;;;;15.90;55.00;;;;;;5091989;28;19931;-72
2022/01/25 13:14:49;;;;;;;;;;;15.90;55.00;;;;;;5091499;28;19924;-69
2022/01/25 13:17:17;;;;;;;;;;;15.80;54.90;;;;;;5091218;28;19986;-71
2022/01/25 13:19:48;;;;;;;;;;;15.90;54.90;;;;;;5091522;28;19928;-71
2022/01/25 13:22:17;;;;;;;;;;;15.90;54.90;;;;;;5109291;28;19936;-70
2022/01/25 13:24:49;;;;;;;;;;;15.90;54.90;;;;;;5111611;28;19953;-71
2022/01/25 13:27:16;;;;;;;;;;;15.90;55.00;;;;;;5111223;28;19932;-70
2022/01/25 13:32:30;;;;;;;;;;;15.90;55.00;;;;;;5111724;28;19920;-70
2022/01/25 13:35:04;;;;;;;;;;;15.90;55.00;;;;;;5111412;28;20007;-70
2022/01/25 13:37:31;;;;;;;;;;;15.90;55.00;;;;;;5111343;28;19973;-70
2022/01/25 13:39:59;;;;;;;;;;;15.90;55.00;;;;;;5111400;28;20372;-71
2022/01/25 13:42:29;;;;;;;;;;;15.90;54.90;;;;;;5108666;28;19925;-70
2022/01/25 13:47:58;;;;;;;;;;;15.90;54.90;;;;;;5119060;28;20010;-71
2022/01/25 13:50:25;;;;;;;;;;;16.00;55.00;;;;;;5101629;28;20007;-71
2022/01/25 13:52:52;;;;;;;;;;;15.90;54.90;;;;;;5099813;28;20002;-71
2022/01/25 13:55:19;;;;;;;;;;;15.90;54.90;;;;;;5099861;28;20015;-71
2022/01/25 13:57:45;;;;;;;;;;;15.90;55.00;;;;;;5103537;28;20006;-71
2022/01/25 14:00:13;;;;;;;;;;;15.90;54.90;;;;;;5099229;28;20006;-71
2022/01/25 14:02:39;;;;;;;;;;;15.90;54.90;;;;;;5101338;28;19999;-71
2022/01/25 14:05:08;;;;;;;;;;;16.00;55.00;;;;;;5099037;28;20433;-71
2022/01/25 14:07:35;;;;;;;;;;;16.00;55.00;;;;;;5095182;28;20015;-69
2022/01/25 14:10:05;;;;;;;;;;;16.00;55.50;;;;;;5092325;28;19924;-72
2022/01/25 14:23:30;;;;;;;;;;;15.90;54.90;;;;;;5109259;28;20397;-71
2022/01/25 14:26:00;;;;;;;;;;;16.70;55.30;;;;;;5111859;28;19924;-71
2022/01/25 14:28:27;;;;;;;;;;;16.00;55.00;;;;;;5111418;28;19931;-71
2022/01/25 14:30:54;;;;;;;;;;;16.00;54.90;;;;;;5111290;28;20452;-71
2022/01/25 14:33:21;;;;;;;;;;;16.00;54.90;;;;;;5111797;28;20014;-71
2022/01/25 14:35:50;;;;;;;;;;;15.90;54.80;;;;;;5110540;28;19927;-71
2022/01/25 14:38:19;;;;;;;;;;;16.00;54.90;;;;;;5111081;28;19930;-71
2022/01/25 14:40:54;;;;;;;;;;;16.00;54.90;;;;;;5111043;28;20349;-71
2022/01/25 14:43:23;;;;;;;;;;;16.00;55.40;;;;;;5099937;28;20030;-71
2022/01/25 14:45:58;;;;;;;;;;;16.00;54.80;;;;;;5090326;28;20006;-71
2022/01/25 14:48:26;;;;;;;;;;;16.00;54.80;;;;;;5093873;28;19925;-71
2022/01/25 14:50:59;;;;;;;;;;;16.00;54.80;;;;;;5094360;28;19965;-71
2022/01/25 14:53:25;;;;;;;;;;;16.00;54.80;;;;;;5095159;28;20142;-71
2022/01/25 14:55:53;;;;;;;;;;;16.00;54.80;;;;;;5093864;28;20015;-71
2022/01/25 14:59:22;;;;;;;;;;;15.90;54.70;;;;;;5094319;28;19935;-71
2022/01/25 15:01:10;;;;;;;;;;;16.00;54.70;;;;;;5093489;28;19928;-71
2022/01/25 15:03:37;;;;;;;;;;;16.00;54.80;;;;;;5093827;28;20106;-71
2022/01/25 15:06:05;;;;;;;;;;;16.00;54.80;;;;;;5094816;28;20012;-71
2022/01/25 15:08:31;;;;;;;;;;;16.00;54.80;;;;;;5094115;28;19964;-71
2022/01/25 15:11:00;;;;;;;;;;;16.00;54.80;;;;;;5093718;28;20284;-71
2022/01/25 15:13:28;;;;;;;;;;;16.00;54.80;;;;;;5094889;28;20445;-71
2022/01/25 15:15:56;;;;;;;;;;;15.90;54.70;;;;;;5093331;28;19978;-71
2022/01/25 15:18:23;;;;;;;;;;;16.00;54.70;;;;;;5094020;28;19924;-71
2022/01/25 15:20:49;;;;;;;;;;;16.00;54.80;;;;;;5099147;28;20019;-71
2022/01/25 15:23:20;;;;;;;;;;;16.00;54.80;;;;;;5114983;28;20304;-71
2022/01/25 15:25:47;;;;;;;;;;;16.00;54.80;;;;;;5113732;28;19969;-71
2022/01/25 15:28:16;;;;;;;;;;;15.90;54.70;;;;;;5114122;28;20391;-71
2022/01/25 15:30:43;;;;;;;;;;;15.90;54.70;;;;;;5113813;28;19927;-71
2022/01/25 15:33:11;;;;;;;;;;;16.00;54.80;;;;;;5113400;28;20412;-71
2022/01/25 15:35:38;;;;;;;;;;;16.00;54.70;;;;;;5113705;28;19963;-71
2022/01/25 15:38:04;;;;;;;;;;;15.90;54.60;;;;;;5113772;28;20006;-71
2022/01/25 15:40:33;;;;;;;;;;;15.90;54.70;;;;;;5113568;28;20015;-71
2022/01/25 15:43:01;;;;;;;;;;;15.90;54.70;;;;;;5105688;28;19928;-71
2022/01/25 15:45:30;;;;;;;;;;;16.00;54.70;;;;;;5093907;28;19928;-71
2022/01/25 15:47:56;;;;;;;;;;;15.90;54.60;;;;;;5094013;28;20373;-71
2022/01/25 15:50:26;;;;;;;;;;;15.90;54.60;;;;;;5094613;28;19924;-71
2022/01/25 15:52:52;;;;;;;;;;;15.90;54.60;;;;;;5092832;28;19930;-71
2022/01/25 15:55:19;;;;;;;;;;;15.90;54.60;;;;;;5092686;28;20018;-71
2022/01/25 15:57:47;;;;;;;;;;;15.90;54.60;;;;;;5092885;28;20453;-71